This is the latest recevied weather packets stored in our database for station/object KD0RIH. If no packets are shown the sender has not sent any weather packets the latest 10 day(s).
| Time | Temp. | Humidity | Pressure | Rain* | Wind** | Luminosity | Snow |
|---|---|---|---|---|---|---|---|
| 1777944194 | 23.33° C | 48% | 1001.5 hPa | 0 mm | - | 1 W/m² | - |
| 1777943889 | 23.89° C | 46% | 1001.1 hPa | 0 mm | - | 1 W/m² | - |
| 1777943587 | 23.89° C | 46% | 1001.2 hPa | 0 mm | - | 3 W/m² | - |
| 1777943282 | 24.44° C | 46% | 1001.3 hPa | 0 mm | - | 4 W/m² | - |
| 1777942978 | 24.44° C | 43% | 1001 hPa | 0 mm | - | 7 W/m² | - |
| 1777942674 | 25° C | 44% | 1001 hPa | 0 mm | - | 11 W/m² | - |
| 1777942372 | 25° C | 43% | 1001.1 hPa | 0 mm | - | 15 W/m² | - |
| 1777942069 | 25° C | 42% | 1000.9 hPa | 0 mm | - | 19 W/m² | - |
| 1777941765 | 25.56° C | 43% | 1000.8 hPa | 0 mm | - | 25 W/m² | - |
| 1777941463 | 25.56° C | 41% | 1000.6 hPa | 0 mm | - | 34 W/m² | - |
| 1777941160 | 25.56° C | 43% | 1000.6 hPa | 0 mm | - | 41 W/m² | - |
| 1777940856 | 25.56° C | 42% | 1000.5 hPa | 0 mm | - | 50 W/m² | - |
| 1777940554 | 25.56° C | 42% | 1000.9 hPa | 0 mm | - | 55 W/m² | - |
| 1777940251 | 25.56° C | 45% | 1000.9 hPa | 0 mm | - | 55 W/m² | - |
| 1777939949 | 25° C | 45% | 1001 hPa | 0 mm | - | 62 W/m² | - |
| 1777939645 | 25° C | 45% | 1001 hPa | 0 mm | - | 56 W/m² | - |
| 1777939343 | 25° C | 46% | 1000.9 hPa | 0 mm | - | 62 W/m² | - |
| 1777939040 | 25° C | 53% | 1000.8 hPa | 0 mm | - | 83 W/m² | - |
| 1777938736 | 25.56° C | 51% | 1000.8 hPa | 0 mm | - | 75 W/m² | - |
| 1777938433 | 25.56° C | 46% | 1000.8 hPa | 0 mm | - | 72 W/m² | - |
| 1777938130 | 27.22° C | 44% | 1000.9 hPa | 0 mm | - | 81 W/m² | - |
| 1777937826 | 27.22° C | 36% | 1000.8 hPa | 0 mm | - | 46 W/m² | - |
| 1777937522 | 27.22° C | 36% | 1000.8 hPa | 0 mm | - | 62 W/m² | - |
| 1777937220 | 27.78° C | 35% | 1000.8 hPa | 0 mm | - | 70 W/m² | - |
| 1777936917 | 27.78° C | 36% | 1000.5 hPa | 0 mm | - | 98 W/m² | - |
* Rain latest hour (hover to see other rain measurements)
** Current wind speed in m/s (hover to see current wind gust speed)